Time,TemperatureF,DewpointF,PressureIn,WindDirection,WindDirectionDegrees,WindSpeedMPH,WindSpeedGustMPH,Humidity,HourlyPrecipIn,Conditions,Clouds,dailyrainin,SoftwareType,DateUTC
2013-10-19 00:22:00,38.0,29.0,-100.00,SW,230,6.0,9.0,68,0.00,,,-99.99,,2013-10-19 05:22:00,
2013-10-19 00:42:00,38.0,29.0,-100.00,WSW,240,9.0,11.0,68,0.00,,,-99.99,,2013-10-19 05:42:00,
2013-10-19 01:22:00,37.0,28.0,-100.00,WSW,245,6.0,9.0,70,0.00,,,-99.99,,2013-10-19 06:22:00,
2013-10-19 01:42:00,37.0,29.0,-100.00,WSW,240,6.0,11.0,71,0.00,,,-99.99,,2013-10-19 06:42:00,
2013-10-19 02:11:00,36.0,29.0,-100.00,SW,230,7.0,11.0,73,0.00,,,-99.99,,2013-10-19 07:11:00,
2013-10-19 02:21:00,36.0,29.0,-100.00,SW,235,7.0,11.0,76,0.00,,,-99.99,,2013-10-19 07:21:00,
2013-10-19 02:42:00,36.0,30.0,-100.00,SW,230,7.0,11.0,77,0.00,,,-99.99,,2013-10-19 07:42:00,
2013-10-19 03:22:00,35.0,30.0,-100.00,SW,230,7.0,11.0,80,0.00,,,-99.99,,2013-10-19 08:22:00,
2013-10-19 03:42:00,34.0,29.0,-100.00,WSW,245,7.0,12.0,82,0.00,,,-99.99,,2013-10-19 08:42:00,
2013-10-19 04:21:00,33.0,29.0,-100.00,WSW,245,6.0,9.0,86,0.00,,,-99.99,,2013-10-19 09:21:00,
2013-10-19 04:43:00,32.0,29.0,-100.00,WSW,240,6.0,9.0,87,0.00,,,-99.99,,2013-10-19 09:43:00,
2013-10-19 05:23:00,31.0,29.0,-100.00,SW,220,7.0,9.0,89,0.00,,,-99.99,,2013-10-19 10:23:00,
2013-10-19 05:42:00,31.0,29.0,-100.00,SW,225,6.0,9.0,90,0.00,,,-99.99,,2013-10-19 10:42:00,
2013-10-19 06:22:00,31.0,29.0,-100.00,SW,230,7.0,11.0,91,0.00,,,-99.99,,2013-10-19 11:22:00,
2013-10-19 06:42:00,31.0,29.0,-100.00,SW,215,6.0,9.0,92,0.00,,,-99.99,,2013-10-19 11:42:00,
2013-10-19 07:21:00,31.0,29.0,-100.00,SW,230,6.0,10.0,93,0.00,,,-99.99,,2013-10-19 12:21:00,
2013-10-19 07:42:00,31.0,29.0,-100.00,WSW,240,7.0,10.0,93,0.00,,,-99.99,,2013-10-19 12:42:00,
2013-10-19 08:22:00,33.0,31.0,-100.00,SW,220,7.0,11.0,93,0.00,,,-99.99,,2013-10-19 13:22:00,
2013-10-19 08:42:00,34.0,32.0,-100.00,SW,230,10.0,14.0,93,0.00,,,-99.99,,2013-10-19 13:42:00,
2013-10-19 09:21:00,37.0,34.0,-100.00,SW,225,10.0,13.0,87,0.00,,,-99.99,,2013-10-19 14:21:00,
2013-10-19 11:43:00,50.0,33.0,-100.00,WSW,255,17.0,22.0,51,0.00,,,-99.99,,2013-10-19 16:43:00,
2013-10-19 12:22:00,52.0,32.0,-100.00,WSW,245,17.0,21.0,46,0.00,,,-99.99,,2013-10-19 17:22:00,
2013-10-19 12:43:00,53.0,32.0,-100.00,WSW,250,16.0,22.0,45,0.00,,,-99.99,,2013-10-19 17:43:00,
2013-10-19 13:21:00,54.0,32.0,-100.00,WSW,255,18.0,24.0,42,0.00,,,-99.99,,2013-10-19 18:21:00,
2013-10-19 13:42:00,54.0,31.0,-100.00,West,270,17.0,29.0,40,0.00,,,-99.99,,2013-10-19 18:42:00,
2013-10-19 14:22:00,55.0,31.0,-100.00,West,265,19.0,24.0,39,0.00,,,-99.99,,2013-10-19 19:22:00,
2013-10-19 14:42:00,56.0,32.0,-100.00,West,265,17.0,26.0,39,0.00,,,-99.99,,2013-10-19 19:42:00,
2013-10-19 15:22:00,58.0,34.0,-100.00,West,260,16.0,22.0,39,0.00,,,-99.99,,2013-10-19 20:22:00,
2013-10-19 15:42:00,58.0,32.0,-100.00,WNW,300,15.0,27.0,37,0.00,,,-99.99,,2013-10-19 20:42:00,
2013-10-19 16:21:00,58.0,28.0,-100.00,NW,315,16.0,28.0,32,0.00,,,-99.99,,2013-10-19 21:21:00,
2013-10-19 16:44:00,58.0,29.0,-100.00,NW,310,14.0,26.0,33,0.00,,,-99.99,,2013-10-19 21:44:00,
2013-10-19 17:24:00,56.0,29.0,-100.00,NW,320,16.0,24.0,35,0.00,,,-99.99,,2013-10-19 22:24:00,
2013-10-19 17:43:00,57.0,29.0,-100.00,NW,325,9.0,17.0,35,0.00,,,-99.99,,2013-10-19 22:43:00,
2013-10-19 18:22:00,54.0,29.0,-100.00,NNW,330,8.0,14.0,37,0.00,,,-99.99,,2013-10-19 23:22:00,
2013-10-19 18:42:00,54.0,29.0,-100.00,WNW,295,4.0,11.0,38,0.00,,,-99.99,,2013-10-19 23:42:00,
2013-10-19 19:22:00,52.0,29.0,-100.00,NW,310,2.0,3.0,41,0.00,,,-99.99,,2013-10-20 00:22:00,
2013-10-19 19:42:00,52.0,29.0,-100.00,NW,310,2.0,3.0,41,0.00,,,-99.99,,2013-10-20 00:42:00,
2013-10-19 20:22:00,51.0,29.0,-100.00,SW,230,2.0,4.0,42,0.00,,,-99.99,,2013-10-20 01:22:00,
2013-10-19 20:42:00,48.0,30.0,-100.00,SSW,205,2.0,2.0,49,0.00,,,-99.99,,2013-10-20 01:42:00,
2013-10-19 21:22:00,47.0,31.0,-100.00,South,175,1.0,1.0,52,0.00,,,-99.99,,2013-10-20 02:22:00,
2013-10-19 21:42:00,47.0,32.0,-100.00,SSE,155,1.0,1.0,54,0.00,,,-99.99,,2013-10-20 02:42:00,
2013-10-19 22:21:00,46.0,32.0,-100.00,SE,135,1.0,2.0,57,0.00,,,-99.99,,2013-10-20 03:21:00,
2013-10-19 22:44:00,45.0,31.0,-100.00,ESE,110,2.0,2.0,59,0.00,,,-99.99,,2013-10-20 03:44:00,
2013-10-19 23:02:00,-999.0,-99.9,-100.00,ESE,115,3.0,4.0,-999,-99.99,,,-99.99,,2013-10-20 04:02:00,
2013-10-19 23:14:00,45.0,32.0,-100.00,ESE,115,3.0,4.0,60,0.00,,,-99.99,,2013-10-20 04:14:00,
2013-10-19 23:24:00,44.0,32.0,-100.00,East,100,4.0,5.0,61,0.00,,,-99.99,,2013-10-20 04:24:00,
2013-10-19 23:44:00,43.0,31.0,-100.00,ESE,115,2.0,4.0,62,0.00,,,-99.99,,2013-10-20 04:44:00,